Star Epsilon — V7NZ7 — position and weather

sailwx.info

Track history (hours):
 
Tides and Currents Weather Stations Pressure Air Temp Water Temp Dewpoint Dewpoint Depression Visibility Wind Speed Wind Dir Waves Ship Positions

Star Epsilon

Last reported at 2017-Apr-19 22:05 UTC. Time now 2017-Apr-30 13:02 UTC.
Position N 35°49' E 030°25'.
Warning: this ship's position is 10 days out of date.

Length 189 m; draft 9 m.

Type: Ship. MMSI: 538003043.

Date/timePositionNaut miles runAvg speedWind from/ knotsBaromVisibWave heightAir tempDewpointWater temp
2017-Apr-19 22:05N 35°49' E 030°25'212.7
2017-Apr-19 21:54N 35°49' E 030°23'  
2017-Apr-17 08:16N 36°23' E 014°47'312.8
2017-Apr-17 08:00N 36°24' E 014°43'612.8
2017-Apr-17 07:30N 36°26' E 014°35'712.7
2017-Apr-17 07:00N 36°28' E 014°28'612.7
2017-Apr-17 06:30N 36°30' E 014°20'612.9
2017-Apr-17 06:00N 36°32' E 014°13'713.0
2017-Apr-17 05:30N 36°34' E 014°05'47412.8
2017-Apr-15 16:29N 37°09' E 004°14'1213.5
2017-Apr-15 15:35N 37°08' E 003°59'113.4
2017-Apr-15 15:30N 37°07' E 003°58'713.4
2017-Apr-15 15:00N 37°06' E 003°49'713.4
2017-Apr-15 14:30N 37°05' E 003°41'1313.2
2017-Apr-15 13:30N 37°03' E 003°24'713.1
2017-Apr-15 12:59N 37°01' E 003°16'713.1
2017-Apr-15 12:28N 37°00' E 003°08'613.4
2017-Apr-15 11:59N 36°59' E 003°00'613.4
2017-Apr-15 11:30N 36°58' E 002°52'713.5
2017-Apr-15 11:00N 36°57' E 002°44'713.1
2017-Apr-15 10:30N 36°56' E 002°36'1212.8
2017-Apr-15 09:35N 36°53' E 002°21'1312.8
2017-Apr-15 08:33N 36°51' E 002°05'112.7
2017-Apr-15 08:30N 36°51' E 002°04'613.0
2017-Apr-15 08:00N 36°50' E 001°56'713.2
2017-Apr-15 07:30N 36°48' E 001°48'713.4
2017-Apr-15 07:00N 36°47' E 001°40'713.6
2017-Apr-15 06:30N 36°46' E 001°32'713.6
2017-Apr-15 06:00N 36°45' E 001°23'713.7
2017-Apr-15 05:30N 36°43' E 001°15'714.2
2017-Apr-15 05:00N 36°42' E 001°06'714.1
2017-Apr-15 04:30N 36°41' E 000°57'713.7
2017-Apr-15 04:00N 36°40' E 000°49'613.2
2017-Apr-15 03:30N 36°39' E 000°41'713.1
2017-Apr-15 02:58N 36°38' E 000°32'613.2
2017-Apr-15 02:30N 36°37' E 000°25'713.1
2017-Apr-15 02:00N 36°35' E 000°17'2413.6
2017-Apr-15 00:14N 36°30' W 000°13'413.8
2017-Apr-14 23:56N 36°30' W 000°18'613.9
2017-Apr-14 23:30N 36°29' W 000°25'713.7
2017-Apr-14 23:00N 36°28' W 000°33'713.4
2017-Apr-14 22:30N 36°26' W 000°42'713.5
2017-Apr-14 22:00N 36°25' W 000°50'19213.3
2017-Apr-14 07:34N 36°01' W 004°46'213.7
2017-Apr-14 07:23N 36°01' W 004°49'513.8
2017-Apr-14 07:00N 36°00' W 004°56'814.8
2017-Apr-14 06:30N 35°60' W 005°05'815.9
2017-Apr-14 06:00N 35°59' W 005°14'815.8
2017-Apr-14 05:30N 35°58' W 005°24'714.7
2017-Apr-14 05:00N 35°56' W 005°33'813.9
2017-Apr-14 04:24N 35°54' W 005°43'814.3
2017-Apr-14 03:49N 35°54' W 005°53'513.8
2017-Apr-14 03:27N 35°54' W 005°60'14413.0
2017-Apr-13 16:24N 36°29' W 008°53'512.7
2017-Apr-13 15:59N 36°30' W 008°59'812.8
2017-Apr-13 15:24N 36°32' W 009°08'1712.1
2017-Apr-13 13:58N 36°42' W 009°26'612.6
2017-Apr-13 13:29N 36°46' W 009°31'912.3
2017-Apr-13 12:47N 36°54' W 009°35'412.6
2017-Apr-13 12:29N 36°58' W 009°36'1913.0
2017-Apr-13 11:01N 37°16' W 009°41'2013.4
2017-Apr-13 09:32N 37°35' W 009°48'013.3
2017-Apr-13 09:30N 37°36' W 009°48'813.4
2017-Apr-13 08:55N 37°44' W 009°51'613.3
2017-Apr-13 08:30N 37°49' W 009°52'613.2
2017-Apr-13 08:00N 37°55' W 009°54'713.5
2017-Apr-13 07:30N 38°02' W 009°55'613.0
2017-Apr-13 07:00N 38°08' W 009°56'713.1
2017-Apr-13 06:30N 38°15' W 009°58'613.0
2017-Apr-13 06:00N 38°21' W 009°60'612.8
2017-Apr-13 05:30N 38°27' W 010°02'713.0
2017-Apr-13 05:00N 38°34' W 010°04'612.8
2017-Apr-13 04:30N 38°40' W 010°06'612.8
2017-Apr-13 04:00N 38°46' W 010°06'612.6
2017-Apr-13 03:30N 38°53' W 010°06'612.6
2017-Apr-13 03:00N 38°59' W 010°06'612.4
2017-Apr-13 02:30N 39°05' W 010°06'612.4
2017-Apr-13 02:00N 39°11' W 010°06'612.7
2017-Apr-13 01:30N 39°18' W 010°06'712.8
2017-Apr-13 00:59N 39°24' W 010°06'613.3
2017-Apr-13 00:30N 39°31' W 010°06'713.1
2017-Apr-13 00:00N 39°37' W 010°06'612.9
2017-Apr-12 23:30N 39°44' W 010°06'713.2
2017-Apr-12 23:00N 39°50' W 010°06'813.2
2017-Apr-12 22:25N 39°58' W 010°06'513.2
2017-Apr-12 22:00N 40°04' W 010°06'713.2
2017-Apr-12 21:30N 40°10' W 010°06'713.1
2017-Apr-12 21:00N 40°17' W 010°06'713.2
2017-Apr-12 20:30N 40°23' W 010°06'612.7
2017-Apr-12 20:00N 40°30' W 010°07'713.1
2017-Apr-12 19:30N 40°36' W 010°06'713.2
2017-Apr-12 19:00N 40°43' W 010°06'712.9
2017-Apr-12 18:30N 40°49' W 010°06'612.8
2017-Apr-12 18:00N 40°56' W 010°06'612.5
2017-Apr-12 17:30N 41°02' W 010°06'612.6
2017-Apr-12 17:00N 41°08' W 010°06'812.8
2017-Apr-12 16:22N 41°16' W 010°06'512.6
2017-Apr-12 16:00N 41°21' W 010°06'612.5
2017-Apr-12 15:30N 41°27' W 010°06'712.7
2017-Apr-12 14:59N 41°34' W 010°06'1212.6
2017-Apr-12 14:00N 41°46' W 010°06'613.0
2017-Apr-12 13:30N 41°53' W 010°06'612.8
2017-Apr-12 13:00N 41°59' W 010°06'612.7
2017-Apr-12 12:30N 42°05' W 010°06'1613.2
2017-Apr-12 11:17N 42°21' W 010°06'413.3
2017-Apr-12 11:00N 42°25' W 010°06'62712.1
2017-Apr-10 07:03N 50°27' W 000°24'010.5
2017-Apr-10 07:00N 50°27' W 000°24'510.9
2017-Apr-10 06:30N 50°29' W 000°16'611.3
2017-Apr-10 06:00N 50°30' W 000°07'612.3
2017-Apr-10 05:30N 50°32' E 000°02'612.9
2017-Apr-10 05:00N 50°34' E 000°12'713.4
2017-Apr-10 04:30N 50°35' E 000°22'713.6
2017-Apr-10 04:00N 50°37' E 000°33'713.6
2017-Apr-10 03:30N 50°41' E 000°41'713.4
2017-Apr-10 03:00N 50°45' E 000°50'613.0
2017-Apr-10 02:30N 50°49' E 000°58'612.5
2017-Apr-10 02:00N 50°53' E 001°06'611.9
2017-Apr-10 01:30N 50°57' E 001°13'510.9
2017-Apr-10 01:00N 51°00' E 001°20'510.0
2017-Apr-10 00:30N 51°03' E 001°26'5 9.6
2017-Apr-10 00:00N 51°06' E 001°32'5 9.1
2017-Apr-09 23:30N 51°09' E 001°38'5 9.6
2017-Apr-09 23:00N 51°12' E 001°44'510.3
2017-Apr-09 22:30N 51°16' E 001°49'  
Track history (hours):
 
Tides and Currents Weather Stations Pressure Air Temp Water Temp Dewpoint Dewpoint Depression Visibility Wind Speed Wind Dir Waves Ship Positions

Star Epsilon

Last reported at 2017-Apr-19 22:05 UTC. Time now 2017-Apr-30 13:02 UTC.
Position N 35°49' E 030°25'.
Warning: this ship's position is 10 days out of date.

Length 189 m; draft 9 m.

Type: Ship. MMSI: 538003043.

Date/timePositionNaut miles runAvg speedWind from/ knotsBaromVisibWave heightAir tempDewpointWater temp
2017-Apr-19 22:05N 35°49' E 030°25'212.7
2017-Apr-19 21:54N 35°49' E 030°23'  
2017-Apr-17 08:16N 36°23' E 014°47'312.8
2017-Apr-17 08:00N 36°24' E 014°43'612.8
2017-Apr-17 07:30N 36°26' E 014°35'712.7
2017-Apr-17 07:00N 36°28' E 014°28'612.7
2017-Apr-17 06:30N 36°30' E 014°20'612.9
2017-Apr-17 06:00N 36°32' E 014°13'713.0
2017-Apr-17 05:30N 36°34' E 014°05'47412.8
2017-Apr-15 16:29N 37°09' E 004°14'1213.5
2017-Apr-15 15:35N 37°08' E 003°59'113.4
2017-Apr-15 15:30N 37°07' E 003°58'713.4
2017-Apr-15 15:00N 37°06' E 003°49'713.4
2017-Apr-15 14:30N 37°05' E 003°41'1313.2
2017-Apr-15 13:30N 37°03' E 003°24'713.1
2017-Apr-15 12:59N 37°01' E 003°16'713.1
2017-Apr-15 12:28N 37°00' E 003°08'613.4
2017-Apr-15 11:59N 36°59' E 003°00'613.4
2017-Apr-15 11:30N 36°58' E 002°52'713.5
2017-Apr-15 11:00N 36°57' E 002°44'713.1
2017-Apr-15 10:30N 36°56' E 002°36'1212.8
2017-Apr-15 09:35N 36°53' E 002°21'1312.8
2017-Apr-15 08:33N 36°51' E 002°05'112.7
2017-Apr-15 08:30N 36°51' E 002°04'613.0
2017-Apr-15 08:00N 36°50' E 001°56'713.2
2017-Apr-15 07:30N 36°48' E 001°48'713.4
2017-Apr-15 07:00N 36°47' E 001°40'713.6
2017-Apr-15 06:30N 36°46' E 001°32'713.6
2017-Apr-15 06:00N 36°45' E 001°23'713.7
2017-Apr-15 05:30N 36°43' E 001°15'714.2
2017-Apr-15 05:00N 36°42' E 001°06'714.1
2017-Apr-15 04:30N 36°41' E 000°57'713.7
2017-Apr-15 04:00N 36°40' E 000°49'613.2
2017-Apr-15 03:30N 36°39' E 000°41'713.1
2017-Apr-15 02:58N 36°38' E 000°32'613.2
2017-Apr-15 02:30N 36°37' E 000°25'713.1
2017-Apr-15 02:00N 36°35' E 000°17'2413.6
2017-Apr-15 00:14N 36°30' W 000°13'413.8
2017-Apr-14 23:56N 36°30' W 000°18'613.9
2017-Apr-14 23:30N 36°29' W 000°25'713.7
2017-Apr-14 23:00N 36°28' W 000°33'713.4
2017-Apr-14 22:30N 36°26' W 000°42'713.5
2017-Apr-14 22:00N 36°25' W 000°50'19213.3
2017-Apr-14 07:34N 36°01' W 004°46'213.7
2017-Apr-14 07:23N 36°01' W 004°49'513.8
2017-Apr-14 07:00N 36°00' W 004°56'814.8
2017-Apr-14 06:30N 35°60' W 005°05'815.9
2017-Apr-14 06:00N 35°59' W 005°14'815.8
2017-Apr-14 05:30N 35°58' W 005°24'714.7
2017-Apr-14 05:00N 35°56' W 005°33'813.9
2017-Apr-14 04:24N 35°54' W 005°43'814.3
2017-Apr-14 03:49N 35°54' W 005°53'513.8
2017-Apr-14 03:27N 35°54' W 005°60'14413.0
2017-Apr-13 16:24N 36°29' W 008°53'512.7
2017-Apr-13 15:59N 36°30' W 008°59'812.8
2017-Apr-13 15:24N 36°32' W 009°08'1712.1
2017-Apr-13 13:58N 36°42' W 009°26'612.6
2017-Apr-13 13:29N 36°46' W 009°31'912.3
2017-Apr-13 12:47N 36°54' W 009°35'412.6
2017-Apr-13 12:29N 36°58' W 009°36'1913.0
2017-Apr-13 11:01N 37°16' W 009°41'2013.4
2017-Apr-13 09:32N 37°35' W 009°48'013.3
2017-Apr-13 09:30N 37°36' W 009°48'813.4
2017-Apr-13 08:55N 37°44' W 009°51'613.3
2017-Apr-13 08:30N 37°49' W 009°52'613.2
2017-Apr-13 08:00N 37°55' W 009°54'713.5
2017-Apr-13 07:30N 38°02' W 009°55'613.0
2017-Apr-13 07:00N 38°08' W 009°56'713.1
2017-Apr-13 06:30N 38°15' W 009°58'613.0
2017-Apr-13 06:00N 38°21' W 009°60'612.8
2017-Apr-13 05:30N 38°27' W 010°02'713.0
2017-Apr-13 05:00N 38°34' W 010°04'612.8
2017-Apr-13 04:30N 38°40' W 010°06'612.8
2017-Apr-13 04:00N 38°46' W 010°06'612.6
2017-Apr-13 03:30N 38°53' W 010°06'612.6
2017-Apr-13 03:00N 38°59' W 010°06'612.4
2017-Apr-13 02:30N 39°05' W 010°06'612.4
2017-Apr-13 02:00N 39°11' W 010°06'612.7
2017-Apr-13 01:30N 39°18' W 010°06'712.8
2017-Apr-13 00:59N 39°24' W 010°06'613.3
2017-Apr-13 00:30N 39°31' W 010°06'713.1
2017-Apr-13 00:00N 39°37' W 010°06'612.9
2017-Apr-12 23:30N 39°44' W 010°06'713.2
2017-Apr-12 23:00N 39°50' W 010°06'813.2
2017-Apr-12 22:25N 39°58' W 010°06'513.2
2017-Apr-12 22:00N 40°04' W 010°06'713.2
2017-Apr-12 21:30N 40°10' W 010°06'713.1
2017-Apr-12 21:00N 40°17' W 010°06'713.2
2017-Apr-12 20:30N 40°23' W 010°06'612.7
2017-Apr-12 20:00N 40°30' W 010°07'713.1
2017-Apr-12 19:30N 40°36' W 010°06'713.2
2017-Apr-12 19:00N 40°43' W 010°06'712.9
2017-Apr-12 18:30N 40°49' W 010°06'612.8
2017-Apr-12 18:00N 40°56' W 010°06'612.5
2017-Apr-12 17:30N 41°02' W 010°06'612.6
2017-Apr-12 17:00N 41°08' W 010°06'812.8
2017-Apr-12 16:22N 41°16' W 010°06'512.6
2017-Apr-12 16:00N 41°21' W 010°06'612.5
2017-Apr-12 15:30N 41°27' W 010°06'712.7
2017-Apr-12 14:59N 41°34' W 010°06'1212.6
2017-Apr-12 14:00N 41°46' W 010°06'613.0
2017-Apr-12 13:30N 41°53' W 010°06'612.8
2017-Apr-12 13:00N 41°59' W 010°06'612.7
2017-Apr-12 12:30N 42°05' W 010°06'1613.2
2017-Apr-12 11:17N 42°21' W 010°06'413.3
2017-Apr-12 11:00N 42°25' W 010°06'62712.1
2017-Apr-10 07:03N 50°27' W 000°24'010.5
2017-Apr-10 07:00N 50°27' W 000°24'510.9
2017-Apr-10 06:30N 50°29' W 000°16'611.3
2017-Apr-10 06:00N 50°30' W 000°07'612.3
2017-Apr-10 05:30N 50°32' E 000°02'612.9
2017-Apr-10 05:00N 50°34' E 000°12'713.4
2017-Apr-10 04:30N 50°35' E 000°22'713.6
2017-Apr-10 04:00N 50°37' E 000°33'713.6
2017-Apr-10 03:30N 50°41' E 000°41'713.4
2017-Apr-10 03:00N 50°45' E 000°50'613.0
2017-Apr-10 02:30N 50°49' E 000°58'612.5
2017-Apr-10 02:00N 50°53' E 001°06'611.9
2017-Apr-10 01:30N 50°57' E 001°13'510.9
2017-Apr-10 01:00N 51°00' E 001°20'510.0
2017-Apr-10 00:30N 51°03' E 001°26'5 9.6
2017-Apr-10 00:00N 51°06' E 001°32'5 9.1
2017-Apr-09 23:30N 51°09' E 001°38'5 9.6
2017-Apr-09 23:00N 51°12' E 001°44'510.3
2017-Apr-09 22:30N 51°16' E 001°49'  

Dump ship's entire track history